sensor_id;sensor_type;location;lat;lon;timestamp;temperature;humidity
50738;DHT22;36703;48.154;17.126;2023-07-20T00:00:01;29.00;40.60
50738;DHT22;36703;48.154;17.126;2023-07-20T00:04:03;29.00;40.50
50738;DHT22;36703;48.154;17.126;2023-07-20T00:08:05;29.10;40.50
50738;DHT22;36703;48.154;17.126;2023-07-20T00:12:06;29.20;40.30
50738;DHT22;36703;48.154;17.126;2023-07-20T00:16:08;29.30;40.10
50738;DHT22;36703;48.154;17.126;2023-07-20T00:20:10;29.30;40.00
50738;DHT22;36703;48.154;17.126;2023-07-20T00:24:12;29.30;39.90
50738;DHT22;36703;48.154;17.126;2023-07-20T00:28:14;29.30;39.70
50738;DHT22;36703;48.154;17.126;2023-07-20T00:32:16;29.30;39.70
50738;DHT22;36703;48.154;17.126;2023-07-20T00:36:18;29.30;39.80
50738;DHT22;36703;48.154;17.126;2023-07-20T00:40:20;29.30;39.70
50738;DHT22;36703;48.154;17.126;2023-07-20T00:44:21;29.20;39.70
50738;DHT22;36703;48.154;17.126;2023-07-20T00:48:23;29.30;39.70
50738;DHT22;36703;48.154;17.126;2023-07-20T00:52:25;29.20;39.60
50738;DHT22;36703;48.154;17.126;2023-07-20T00:56:29;29.20;39.70
50738;DHT22;36703;48.154;17.126;2023-07-20T01:00:31;29.20;39.80
50738;DHT22;36703;48.154;17.126;2023-07-20T01:04:33;29.10;40.00
50738;DHT22;36703;48.154;17.126;2023-07-20T01:08:46;29.00;40.20
50738;DHT22;36703;48.154;17.126;2023-07-20T01:12:53;28.80;40.50
50738;DHT22;36703;48.154;17.126;2023-07-20T01:16:56;28.70;40.80
50738;DHT22;36703;48.154;17.126;2023-07-20T01:21:06;28.80;40.90
50738;DHT22;36703;48.154;17.126;2023-07-20T01:34:03;29.00;40.60
50738;DHT22;36703;48.154;17.126;2023-07-20T01:38:08;29.00;40.40
50738;DHT22;36703;48.154;17.126;2023-07-20T01:42:11;29.00;40.30
50738;DHT22;36703;48.154;17.126;2023-07-20T01:46:13;29.00;40.30
50738;DHT22;36703;48.154;17.126;2023-07-20T01:50:15;29.10;40.30
50738;DHT22;36703;48.154;17.126;2023-07-20T01:54:16;29.10;40.20
50738;DHT22;36703;48.154;17.126;2023-07-20T01:58:19;29.00;40.00
50738;DHT22;36703;48.154;17.126;2023-07-20T02:02:20;29.00;40.10
50738;DHT22;36703;48.154;17.126;2023-07-20T02:06:22;29.00;40.10
50738;DHT22;36703;48.154;17.126;2023-07-20T02:10:24;29.10;40.20
50738;DHT22;36703;48.154;17.126;2023-07-20T02:14:25;29.00;40.20
50738;DHT22;36703;48.154;17.126;2023-07-20T02:18:27;29.10;40.30
50738;DHT22;36703;48.154;17.126;2023-07-20T02:22:28;29.00;40.30
50738;DHT22;36703;48.154;17.126;2023-07-20T02:26:30;29.10;40.30
50738;DHT22;36703;48.154;17.126;2023-07-20T02:30:32;29.00;40.30
50738;DHT22;36703;48.154;17.126;2023-07-20T02:34:33;29.10;40.40
50738;DHT22;36703;48.154;17.126;2023-07-20T02:38:35;29.00;40.40
50738;DHT22;36703;48.154;17.126;2023-07-20T02:42:36;29.00;40.30
50738;DHT22;36703;48.154;17.126;2023-07-20T02:46:38;29.00;40.10
50738;DHT22;36703;48.154;17.126;2023-07-20T02:50:40;29.00;40.00
50738;DHT22;36703;48.154;17.126;2023-07-20T02:54:41;28.90;39.90
50738;DHT22;36703;48.154;17.126;2023-07-20T02:58:43;28.90;39.90
50738;DHT22;36703;48.154;17.126;2023-07-20T03:02:46;28.90;40.00
50738;DHT22;36703;48.154;17.126;2023-07-20T03:06:53;28.90;40.10
50738;DHT22;36703;48.154;17.126;2023-07-20T03:10:55;28.80;40.20
50738;DHT22;36703;48.154;17.126;2023-07-20T03:14:56;28.80;40.30
50738;DHT22;36703;48.154;17.126;2023-07-20T03:18:59;28.80;40.40
50738;DHT22;36703;48.154;17.126;2023-07-20T03:23:01;28.80;40.50
50738;DHT22;36703;48.154;17.126;2023-07-20T03:27:03;28.70;41.10
50738;DHT22;36703;48.154;17.126;2023-07-20T03:31:06;28.70;40.60
50738;DHT22;36703;48.154;17.126;2023-07-20T03:35:10;28.70;40.60
50738;DHT22;36703;48.154;17.126;2023-07-20T03:39:12;28.70;40.70
50738;DHT22;36703;48.154;17.126;2023-07-20T03:43:14;28.70;40.80
50738;DHT22;36703;48.154;17.126;2023-07-20T03:47:15;28.70;40.90
50738;DHT22;36703;48.154;17.126;2023-07-20T03:51:17;28.60;40.90
50738;DHT22;36703;48.154;17.126;2023-07-20T03:55:18;28.60;41.10
50738;DHT22;36703;48.154;17.126;2023-07-20T03:59:20;28.50;41.20
50738;DHT22;36703;48.154;17.126;2023-07-20T04:03:22;28.50;41.20
50738;DHT22;36703;48.154;17.126;2023-07-20T04:07:26;28.50;41.10
50738;DHT22;36703;48.154;17.126;2023-07-20T04:11:28;28.50;41.10
50738;DHT22;36703;48.154;17.126;2023-07-20T04:15:29;28.50;40.90
50738;DHT22;36703;48.154;17.126;2023-07-20T04:19:31;28.50;40.90
50738;DHT22;36703;48.154;17.126;2023-07-20T04:23:33;28.50;40.90
50738;DHT22;36703;48.154;17.126;2023-07-20T04:27:35;28.50;40.90
50738;DHT22;36703;48.154;17.126;2023-07-20T04:31:37;28.40;40.80
50738;DHT22;36703;48.154;17.126;2023-07-20T04:39:53;28.30;40.80
50738;DHT22;36703;48.154;17.126;2023-07-20T04:43:54;28.30;40.80
50738;DHT22;36703;48.154;17.126;2023-07-20T04:48:09;28.30;40.80
50738;DHT22;36703;48.154;17.126;2023-07-20T04:52:19;28.30;40.80
50738;DHT22;36703;48.154;17.126;2023-07-20T04:56:22;28.30;41.70
50738;DHT22;36703;48.154;17.126;2023-07-20T05:00:25;28.30;40.70
50738;DHT22;36703;48.154;17.126;2023-07-20T05:04:27;28.20;40.70
50738;DHT22;36703;48.154;17.126;2023-07-20T05:08:29;28.30;40.80
50738;DHT22;36703;48.154;17.126;2023-07-20T05:12:30;28.30;40.80
50738;DHT22;36703;48.154;17.126;2023-07-20T05:16:32;28.30;40.80
50738;DHT22;36703;48.154;17.126;2023-07-20T05:20:38;28.30;40.80
50738;DHT22;36703;48.154;17.126;2023-07-20T05:24:39;28.30;40.60
50738;DHT22;36703;48.154;17.126;2023-07-20T05:28:41;28.20;40.30
50738;DHT22;36703;48.154;17.126;2023-07-20T05:32:42;28.10;40.10
50738;DHT22;36703;48.154;17.126;2023-07-20T05:36:46;28.20;40.10
50738;DHT22;36703;48.154;17.126;2023-07-20T05:40:48;28.20;39.90
50738;DHT22;36703;48.154;17.126;2023-07-20T05:44:49;28.30;40.00
50738;DHT22;36703;48.154;17.126;2023-07-20T05:48:54;28.30;40.00
50738;DHT22;36703;48.154;17.126;2023-07-20T05:52:55;28.30;40.00
50738;DHT22;36703;48.154;17.126;2023-07-20T05:56:57;28.30;40.10
50738;DHT22;36703;48.154;17.126;2023-07-20T06:00:59;28.30;40.10
50738;DHT22;36703;48.154;17.126;2023-07-20T06:05:00;28.30;40.10
50738;DHT22;36703;48.154;17.126;2023-07-20T06:09:02;28.30;40.10
50738;DHT22;36703;48.154;17.126;2023-07-20T06:13:10;28.20;40.10
50738;DHT22;36703;48.154;17.126;2023-07-20T06:17:12;28.10;40.30
50738;DHT22;36703;48.154;17.126;2023-07-20T06:21:13;28.00;40.50
50738;DHT22;36703;48.154;17.126;2023-07-20T06:25:15;27.90;40.60
50738;DHT22;36703;48.154;17.126;2023-07-20T06:29:17;27.90;40.90
50738;DHT22;36703;48.154;17.126;2023-07-20T06:33:19;28.00;40.60
50738;DHT22;36703;48.154;17.126;2023-07-20T06:37:21;28.10;40.60
50738;DHT22;36703;48.154;17.126;2023-07-20T06:41:23;28.10;40.60
50738;DHT22;36703;48.154;17.126;2023-07-20T06:45:24;28.10;40.40
50738;DHT22;36703;48.154;17.126;2023-07-20T06:49:27;28.20;40.50
50738;DHT22;36703;48.154;17.126;2023-07-20T06:53:30;28.30;40.20
50738;DHT22;36703;48.154;17.126;2023-07-20T06:57:32;28.40;40.20
50738;DHT22;36703;48.154;17.126;2023-07-20T07:01:33;28.50;39.90
50738;DHT22;36703;48.154;17.126;2023-07-20T07:05:36;28.60;39.80
50738;DHT22;36703;48.154;17.126;2023-07-20T07:09:38;28.70;39.50
50738;DHT22;36703;48.154;17.126;2023-07-20T07:13:40;28.60;39.40
50738;DHT22;36703;48.154;17.126;2023-07-20T07:17:41;28.60;39.50
50738;DHT22;36703;48.154;17.126;2023-07-20T07:21:44;28.70;39.60
50738;DHT22;36703;48.154;17.126;2023-07-20T07:25:46;28.80;39.70
50738;DHT22;36703;48.154;17.126;2023-07-20T07:29:48;28.90;39.20
50738;DHT22;36703;48.154;17.126;2023-07-20T07:33:50;29.00;38.80
50738;DHT22;36703;48.154;17.126;2023-07-20T07:37:52;29.00;38.60
50738;DHT22;36703;48.154;17.126;2023-07-20T07:41:53;29.00;38.50
50738;DHT22;36703;48.154;17.126;2023-07-20T07:45:55;29.10;38.40
50738;DHT22;36703;48.154;17.126;2023-07-20T07:49:57;29.20;38.30
50738;DHT22;36703;48.154;17.126;2023-07-20T07:53:58;29.20;38.10
50738;DHT22;36703;48.154;17.126;2023-07-20T07:58:00;29.20;38.00
50738;DHT22;36703;48.154;17.126;2023-07-20T08:02:05;29.20;37.90
50738;DHT22;36703;48.154;17.126;2023-07-20T08:06:07;29.30;37.80
50738;DHT22;36703;48.154;17.126;2023-07-20T08:10:09;29.30;37.70
50738;DHT22;36703;48.154;17.126;2023-07-20T08:14:10;29.30;37.70
50738;DHT22;36703;48.154;17.126;2023-07-20T08:18:12;29.30;37.70
50738;DHT22;36703;48.154;17.126;2023-07-20T08:22:13;29.40;37.80
50738;DHT22;36703;48.154;17.126;2023-07-20T08:26:15;29.40;37.90
50738;DHT22;36703;48.154;17.126;2023-07-20T08:30:17;29.50;37.80
50738;DHT22;36703;48.154;17.126;2023-07-20T08:34:20;29.40;37.50
50738;DHT22;36703;48.154;17.126;2023-07-20T08:38:21;29.50;37.80
50738;DHT22;36703;48.154;17.126;2023-07-20T08:42:23;29.40;37.60
50738;DHT22;36703;48.154;17.126;2023-07-20T08:46:26;29.50;38.30
50738;DHT22;36703;48.154;17.126;2023-07-20T08:50:30;29.50;37.60
50738;DHT22;36703;48.154;17.126;2023-07-20T08:54:32;29.60;37.40
50738;DHT22;36703;48.154;17.126;2023-07-20T08:58:35;29.70;37.20
50738;DHT22;36703;48.154;17.126;2023-07-20T09:02:38;29.70;37.00
50738;DHT22;36703;48.154;17.126;2023-07-20T09:06:43;29.70;36.90
50738;DHT22;36703;48.154;17.126;2023-07-20T09:10:45;29.80;36.90
50738;DHT22;36703;48.154;17.126;2023-07-20T09:14:47;29.80;36.80
50738;DHT22;36703;48.154;17.126;2023-07-20T09:18:49;29.90;36.80
50738;DHT22;36703;48.154;17.126;2023-07-20T09:22:51;29.90;37.40
50738;DHT22;36703;48.154;17.126;2023-07-20T09:26:53;30.00;36.80
50738;DHT22;36703;48.154;17.126;2023-07-20T09:30:55;30.10;36.80
50738;DHT22;36703;48.154;17.126;2023-07-20T09:34:58;30.10;36.60
50738;DHT22;36703;48.154;17.126;2023-07-20T09:39:00;30.20;36.40
50738;DHT22;36703;48.154;17.126;2023-07-20T09:43:02;30.30;36.10
50738;DHT22;36703;48.154;17.126;2023-07-20T09:47:06;30.40;36.60
50738;DHT22;36703;48.154;17.126;2023-07-20T09:51:08;30.40;36.20
50738;DHT22;36703;48.154;17.126;2023-07-20T09:55:12;30.40;36.00
50738;DHT22;36703;48.154;17.126;2023-07-20T09:59:14;30.40;35.80
50738;DHT22;36703;48.154;17.126;2023-07-20T10:03:19;30.30;35.80
50738;DHT22;36703;48.154;17.126;2023-07-20T10:07:22;30.40;35.80
50738;DHT22;36703;48.154;17.126;2023-07-20T10:11:26;30.40;35.80
50738;DHT22;36703;48.154;17.126;2023-07-20T10:15:41;30.50;35.70
50738;DHT22;36703;48.154;17.126;2023-07-20T10:19:50;30.60;35.60
50738;DHT22;36703;48.154;17.126;2023-07-20T10:23:55;30.60;35.50
50738;DHT22;36703;48.154;17.126;2023-07-20T10:27:57;30.70;35.70
50738;DHT22;36703;48.154;17.126;2023-07-20T10:32:00;30.60;35.60
50738;DHT22;36703;48.154;17.126;2023-07-20T10:36:03;30.50;35.90
50738;DHT22;36703;48.154;17.126;2023-07-20T10:44:29;30.20;37.10
50738;DHT22;36703;48.154;17.126;2023-07-20T10:48:32;30.10;36.80
50738;DHT22;36703;48.154;17.126;2023-07-20T10:52:40;30.10;37.10
50738;DHT22;36703;48.154;17.126;2023-07-20T10:56:43;30.10;37.40
50738;DHT22;36703;48.154;17.126;2023-07-20T11:01:00;30.10;37.60
50738;DHT22;36703;48.154;17.126;2023-07-20T11:05:03;30.20;37.60
50738;DHT22;36703;48.154;17.126;2023-07-20T11:09:09;30.30;37.40
50738;DHT22;36703;48.154;17.126;2023-07-20T11:13:22;30.40;37.10
50738;DHT22;36703;48.154;17.126;2023-07-20T11:17:31;30.40;36.80
50738;DHT22;36703;48.154;17.126;2023-07-20T11:21:37;30.40;36.60
50738;DHT22;36703;48.154;17.126;2023-07-20T11:25:40;30.50;36.50
50738;DHT22;36703;48.154;17.126;2023-07-20T11:29:41;30.50;36.40
50738;DHT22;36703;48.154;17.126;2023-07-20T11:33:43;30.60;36.20
50738;DHT22;36703;48.154;17.126;2023-07-20T11:37:45;30.70;36.20
50738;DHT22;36703;48.154;17.126;2023-07-20T11:41:47;30.70;36.10
50738;DHT22;36703;48.154;17.126;2023-07-20T11:45:50;30.70;36.20
50738;DHT22;36703;48.154;17.126;2023-07-20T11:49:52;30.70;36.50
50738;DHT22;36703;48.154;17.126;2023-07-20T11:53:56;30.80;36.80
50738;DHT22;36703;48.154;17.126;2023-07-20T11:58:06;30.90;37.00
50738;DHT22;36703;48.154;17.126;2023-07-20T12:02:08;31.00;36.80
50738;DHT22;36703;48.154;17.126;2023-07-20T12:06:10;31.00;36.50
50738;DHT22;36703;48.154;17.126;2023-07-20T12:10:12;31.10;36.10
50738;DHT22;36703;48.154;17.126;2023-07-20T12:14:14;31.20;35.80
50738;DHT22;36703;48.154;17.126;2023-07-20T12:18:15;31.20;35.60
50738;DHT22;36703;48.154;17.126;2023-07-20T12:22:17;31.20;35.60
50738;DHT22;36703;48.154;17.126;2023-07-20T12:26:20;31.30;35.60
50738;DHT22;36703;48.154;17.126;2023-07-20T12:30:23;31.30;35.50
50738;DHT22;36703;48.154;17.126;2023-07-20T12:34:24;31.40;35.40
50738;DHT22;36703;48.154;17.126;2023-07-20T12:38:26;31.40;35.40
50738;DHT22;36703;48.154;17.126;2023-07-20T12:42:31;31.40;35.30
50738;DHT22;36703;48.154;17.126;2023-07-20T12:46:32;31.50;35.40
50738;DHT22;36703;48.154;17.126;2023-07-20T12:50:37;31.50;35.40
50738;DHT22;36703;48.154;17.126;2023-07-20T12:54:39;31.50;35.30
50738;DHT22;36703;48.154;17.126;2023-07-20T12:58:41;31.50;35.40
50738;DHT22;36703;48.154;17.126;2023-07-20T13:02:42;31.50;35.70
50738;DHT22;36703;48.154;17.126;2023-07-20T13:06:44;31.50;35.90
50738;DHT22;36703;48.154;17.126;2023-07-20T13:10:46;31.50;36.20
50738;DHT22;36703;48.154;17.126;2023-07-20T13:14:48;31.40;35.90
50738;DHT22;36703;48.154;17.126;2023-07-20T13:18:49;31.40;35.70
50738;DHT22;36703;48.154;17.126;2023-07-20T13:22:51;31.40;35.50
50738;DHT22;36703;48.154;17.126;2023-07-20T13:26:53;31.40;35.30
50738;DHT22;36703;48.154;17.126;2023-07-20T13:30:55;31.50;35.10
50738;DHT22;36703;48.154;17.126;2023-07-20T13:34:57;31.40;34.80
50738;DHT22;36703;48.154;17.126;2023-07-20T13:38:58;31.30;34.70
50738;DHT22;36703;48.154;17.126;2023-07-20T13:43:00;31.30;34.80
50738;DHT22;36703;48.154;17.126;2023-07-20T13:47:02;31.30;34.90
50738;DHT22;36703;48.154;17.126;2023-07-20T13:51:06;31.30;34.90
50738;DHT22;36703;48.154;17.126;2023-07-20T13:55:08;31.30;34.50
50738;DHT22;36703;48.154;17.126;2023-07-20T13:59:09;31.30;34.60
50738;DHT22;36703;48.154;17.126;2023-07-20T14:03:11;31.30;34.70
50738;DHT22;36703;48.154;17.126;2023-07-20T14:07:13;31.30;34.90
50738;DHT22;36703;48.154;17.126;2023-07-20T14:11:14;31.30;34.90
50738;DHT22;36703;48.154;17.126;2023-07-20T14:15:16;31.30;34.80
50738;DHT22;36703;48.154;17.126;2023-07-20T14:19:20;31.20;34.60
50738;DHT22;36703;48.154;17.126;2023-07-20T14:23:21;31.20;34.60
50738;DHT22;36703;48.154;17.126;2023-07-20T14:27:23;31.20;34.50
50738;DHT22;36703;48.154;17.126;2023-07-20T14:31:27;31.20;34.80
50738;DHT22;36703;48.154;17.126;2023-07-20T14:35:28;31.20;34.30
50738;DHT22;36703;48.154;17.126;2023-07-20T14:39:30;31.20;34.20
50738;DHT22;36703;48.154;17.126;2023-07-20T14:43:36;31.20;34.60
50738;DHT22;36703;48.154;17.126;2023-07-20T14:47:38;31.20;34.10
50738;DHT22;36703;48.154;17.126;2023-07-20T14:51:39;31.20;34.00
50738;DHT22;36703;48.154;17.126;2023-07-20T14:55:44;31.20;34.00
50738;DHT22;36703;48.154;17.126;2023-07-20T14:59:46;31.10;33.70
50738;DHT22;36703;48.154;17.126;2023-07-20T15:03:47;31.10;33.70
50738;DHT22;36703;48.154;17.126;2023-07-20T15:07:51;31.10;33.70
50738;DHT22;36703;48.154;17.126;2023-07-20T15:11:52;31.10;33.70
50738;DHT22;36703;48.154;17.126;2023-07-20T15:15:54;31.10;33.70
50738;DHT22;36703;48.154;17.126;2023-07-20T15:19:55;31.10;33.70
50738;DHT22;36703;48.154;17.126;2023-07-20T15:23:58;31.00;33.70
50738;DHT22;36703;48.154;17.126;2023-07-20T15:28:02;31.10;33.70
50738;DHT22;36703;48.154;17.126;2023-07-20T15:32:03;31.10;33.70
50738;DHT22;36703;48.154;17.126;2023-07-20T15:36:07;31.00;33.70
50738;DHT22;36703;48.154;17.126;2023-07-20T15:40:09;31.00;33.80
50738;DHT22;36703;48.154;17.126;2023-07-20T15:44:12;31.10;33.70
50738;DHT22;36703;48.154;17.126;2023-07-20T15:48:15;31.10;33.70
50738;DHT22;36703;48.154;17.126;2023-07-20T15:52:16;31.10;33.70
50738;DHT22;36703;48.154;17.126;2023-07-20T15:56:19;31.10;33.60
50738;DHT22;36703;48.154;17.126;2023-07-20T16:00:20;31.10;33.60
50738;DHT22;36703;48.154;17.126;2023-07-20T16:04:25;31.00;33.60
50738;DHT22;36703;48.154;17.126;2023-07-20T16:08:26;31.00;33.60
50738;DHT22;36703;48.154;17.126;2023-07-20T16:12:28;31.00;33.70
50738;DHT22;36703;48.154;17.126;2023-07-20T16:16:34;31.00;33.70
50738;DHT22;36703;48.154;17.126;2023-07-20T16:20:38;30.90;33.70
50738;DHT22;36703;48.154;17.126;2023-07-20T16:24:39;30.90;33.70
50738;DHT22;36703;48.154;17.126;2023-07-20T16:28:41;31.00;33.80
50738;DHT22;36703;48.154;17.126;2023-07-20T16:32:47;30.90;33.70
50738;DHT22;36703;48.154;17.126;2023-07-20T16:36:48;30.90;33.80
50738;DHT22;36703;48.154;17.126;2023-07-20T16:40:50;30.90;33.80
50738;DHT22;36703;48.154;17.126;2023-07-20T16:44:56;30.80;33.90
50738;DHT22;36703;48.154;17.126;2023-07-20T16:48:59;30.90;34.10
50738;DHT22;36703;48.154;17.126;2023-07-20T16:53:05;30.90;34.30
50738;DHT22;36703;48.154;17.126;2023-07-20T16:57:07;31.00;34.40
50738;DHT22;36703;48.154;17.126;2023-07-20T17:01:10;31.00;34.50
50738;DHT22;36703;48.154;17.126;2023-07-20T17:05:11;31.00;34.50
50738;DHT22;36703;48.154;17.126;2023-07-20T17:09:13;31.00;34.40
50738;DHT22;36703;48.154;17.126;2023-07-20T17:13:16;31.00;34.80
50738;DHT22;36703;48.154;17.126;2023-07-20T17:17:17;31.00;34.70
50738;DHT22;36703;48.154;17.126;2023-07-20T17:21:19;31.00;34.70
50738;DHT22;36703;48.154;17.126;2023-07-20T17:25:20;30.90;34.60
50738;DHT22;36703;48.154;17.126;2023-07-20T17:29:22;31.00;34.80
50738;DHT22;36703;48.154;17.126;2023-07-20T17:33:24;31.00;34.70
50738;DHT22;36703;48.154;17.126;2023-07-20T17:37:26;30.90;34.70
50738;DHT22;36703;48.154;17.126;2023-07-20T17:41:28;30.90;34.70
50738;DHT22;36703;48.154;17.126;2023-07-20T17:45:29;30.90;34.60
50738;DHT22;36703;48.154;17.126;2023-07-20T17:49:31;30.90;34.90
50738;DHT22;36703;48.154;17.126;2023-07-20T17:53:32;30.90;35.10
50738;DHT22;36703;48.154;17.126;2023-07-20T17:57:34;30.90;34.90
50738;DHT22;36703;48.154;17.126;2023-07-20T18:01:36;30.90;34.70
50738;DHT22;36703;48.154;17.126;2023-07-20T18:05:38;30.80;34.50
50738;DHT22;36703;48.154;17.126;2023-07-20T18:09:39;30.80;34.30
50738;DHT22;36703;48.154;17.126;2023-07-20T18:13:41;30.70;34.50
50738;DHT22;36703;48.154;17.126;2023-07-20T18:17:42;30.80;35.40
50738;DHT22;36703;48.154;17.126;2023-07-20T18:21:44;30.70;34.60
50738;DHT22;36703;48.154;17.126;2023-07-20T18:25:45;30.70;34.70
50738;DHT22;36703;48.154;17.126;2023-07-20T18:29:48;30.70;34.60
50738;DHT22;36703;48.154;17.126;2023-07-20T18:33:49;30.70;34.60
50738;DHT22;36703;48.154;17.126;2023-07-20T18:37:52;30.60;34.50
50738;DHT22;36703;48.154;17.126;2023-07-20T18:41:53;30.60;34.60
50738;DHT22;36703;48.154;17.126;2023-07-20T18:45:56;30.60;34.70
50738;DHT22;36703;48.154;17.126;2023-07-20T18:49:58;30.60;34.70
50738;DHT22;36703;48.154;17.126;2023-07-20T18:54:02;30.90;35.00
50738;DHT22;36703;48.154;17.126;2023-07-20T18:58:04;30.60;34.90
50738;DHT22;36703;48.154;17.126;2023-07-20T19:02:06;30.60;35.20
50738;DHT22;36703;48.154;17.126;2023-07-20T19:06:08;30.60;35.40
50738;DHT22;36703;48.154;17.126;2023-07-20T19:10:10;30.60;35.40
50738;DHT22;36703;48.154;17.126;2023-07-20T19:14:12;30.60;35.40
50738;DHT22;36703;48.154;17.126;2023-07-20T19:18:17;30.60;35.80
50738;DHT22;36703;48.154;17.126;2023-07-20T19:22:18;30.60;35.80
50738;DHT22;36703;48.154;17.126;2023-07-20T19:26:20;30.60;35.70
50738;DHT22;36703;48.154;17.126;2023-07-20T19:30:22;30.60;37.20
50738;DHT22;36703;48.154;17.126;2023-07-20T19:34:23;30.70;35.60
50738;DHT22;36703;48.154;17.126;2023-07-20T19:38:30;30.70;36.10
50738;DHT22;36703;48.154;17.126;2023-07-20T19:42:31;30.60;35.80
50738;DHT22;36703;48.154;17.126;2023-07-20T19:46:33;30.60;35.80
50738;DHT22;36703;48.154;17.126;2023-07-20T19:50:35;30.70;35.80
50738;DHT22;36703;48.154;17.126;2023-07-20T19:54:37;30.70;35.70
50738;DHT22;36703;48.154;17.126;2023-07-20T19:58:39;30.60;35.70
50738;DHT22;36703;48.154;17.126;2023-07-20T20:02:41;30.60;35.60
50738;DHT22;36703;48.154;17.126;2023-07-20T20:06:42;30.60;36.30
50738;DHT22;36703;48.154;17.126;2023-07-20T20:10:44;30.50;35.20
50738;DHT22;36703;48.154;17.126;2023-07-20T20:14:46;30.50;35.10
50738;DHT22;36703;48.154;17.126;2023-07-20T20:18:47;30.50;35.00
50738;DHT22;36703;48.154;17.126;2023-07-20T20:22:49;30.40;35.60
50738;DHT22;36703;48.154;17.126;2023-07-20T20:26:51;30.40;35.00
50738;DHT22;36703;48.154;17.126;2023-07-20T20:30:54;30.40;35.10
50738;DHT22;36703;48.154;17.126;2023-07-20T20:34:56;30.30;35.20
50738;DHT22;36703;48.154;17.126;2023-07-20T20:38:59;30.20;35.20
50738;DHT22;36703;48.154;17.126;2023-07-20T20:43:03;30.10;36.80
50738;DHT22;36703;48.154;17.126;2023-07-20T20:47:07;30.10;35.30
50738;DHT22;36703;48.154;17.126;2023-07-20T20:51:08;30.10;35.10
50738;DHT22;36703;48.154;17.126;2023-07-20T20:55:10;30.10;35.10
50738;DHT22;36703;48.154;17.126;2023-07-20T20:59:11;30.00;35.10
50738;DHT22;36703;48.154;17.126;2023-07-20T21:03:13;29.70;35.10
50738;DHT22;36703;48.154;17.126;2023-07-20T21:07:15;29.70;35.30
50738;DHT22;36703;48.154;17.126;2023-07-20T21:11:16;29.80;35.30
50738;DHT22;36703;48.154;17.126;2023-07-20T21:15:18;29.90;35.30
50738;DHT22;36703;48.154;17.126;2023-07-20T21:19:20;29.90;35.20
50738;DHT22;36703;48.154;17.126;2023-07-20T21:23:22;29.90;35.20
50738;DHT22;36703;48.154;17.126;2023-07-20T21:27:24;29.90;35.30
50738;DHT22;36703;48.154;17.126;2023-07-20T21:31:25;29.70;35.60
50738;DHT22;36703;48.154;17.126;2023-07-20T21:35:27;29.60;35.70
50738;DHT22;36703;48.154;17.126;2023-07-20T21:39:29;29.70;35.60
50738;DHT22;36703;48.154;17.126;2023-07-20T21:43:30;29.70;35.40
50738;DHT22;36703;48.154;17.126;2023-07-20T21:47:32;29.70;35.30
50738;DHT22;36703;48.154;17.126;2023-07-20T21:51:33;29.80;35.30
50738;DHT22;36703;48.154;17.126;2023-07-20T21:55:35;29.80;35.30
50738;DHT22;36703;48.154;17.126;2023-07-20T21:59:36;29.80;35.40
50738;DHT22;36703;48.154;17.126;2023-07-20T22:03:38;29.70;35.50
50738;DHT22;36703;48.154;17.126;2023-07-20T22:07:40;29.70;35.40
50738;DHT22;36703;48.154;17.126;2023-07-20T22:11:45;29.70;35.40
50738;DHT22;36703;48.154;17.126;2023-07-20T22:15:46;29.70;35.40
50738;DHT22;36703;48.154;17.126;2023-07-20T22:19:48;29.70;36.00
50738;DHT22;36703;48.154;17.126;2023-07-20T22:23:49;29.70;35.20
50738;DHT22;36703;48.154;17.126;2023-07-20T22:27:51;29.70;35.40
50738;DHT22;36703;48.154;17.126;2023-07-20T22:31:53;29.60;35.50
50738;DHT22;36703;48.154;17.126;2023-07-20T22:35:55;29.60;35.40
50738;DHT22;36703;48.154;17.126;2023-07-20T22:39:56;29.60;35.60
50738;DHT22;36703;48.154;17.126;2023-07-20T22:43:58;29.60;35.70
50738;DHT22;36703;48.154;17.126;2023-07-20T22:47:59;29.60;35.70
50738;DHT22;36703;48.154;17.126;2023-07-20T22:52:01;29.60;35.50
50738;DHT22;36703;48.154;17.126;2023-07-20T22:56:03;29.60;35.40
50738;DHT22;36703;48.154;17.126;2023-07-20T23:00:05;29.60;35.30
50738;DHT22;36703;48.154;17.126;2023-07-20T23:04:10;29.60;35.20
50738;DHT22;36703;48.154;17.126;2023-07-20T23:08:12;29.60;35.10
50738;DHT22;36703;48.154;17.126;2023-07-20T23:12:14;29.60;35.70
50738;DHT22;36703;48.154;17.126;2023-07-20T23:16:15;29.60;35.00
50738;DHT22;36703;48.154;17.126;2023-07-20T23:20:17;29.60;35.10
50738;DHT22;36703;48.154;17.126;2023-07-20T23:24:19;29.50;35.00
50738;DHT22;36703;48.154;17.126;2023-07-20T23:28:21;29.60;35.10
50738;DHT22;36703;48.154;17.126;2023-07-20T23:32:23;29.50;35.00
50738;DHT22;36703;48.154;17.126;2023-07-20T23:36:24;29.50;35.00
50738;DHT22;36703;48.154;17.126;2023-07-20T23:40:26;29.50;35.10
50738;DHT22;36703;48.154;17.126;2023-07-20T23:44:27;29.40;35.00
50738;DHT22;36703;48.154;17.126;2023-07-20T23:48:30;29.40;35.00
50738;DHT22;36703;48.154;17.126;2023-07-20T23:52:41;29.40;35.20
50738;DHT22;36703;48.154;17.126;2023-07-20T23:56:42;29.40;35.30
